Time;durP1;ratioP1;P1;durP2;ratioP2;P2;SDS_P1;SDS_P2;PMS_P1;PMS_P2;Temp;Humidity;BMP_temperature;BMP_pressure;BME280_temperature;BME280_humidity;BME280_pressure;Samples;Min_cycle;Max_cycle;Signal;HPM_P1;HPM_P2
2023/03/26 00:01:45;;;;;;;4.07;2.60;;;;;;;;;;5004721;28;20201;-52
2023/03/26 00:04:11;;;;;;;8.00;3.07;;;;;;;;;;4997317;28;20247;-52
2023/03/26 00:06:39;;;;;;;5.50;2.37;;;;;;;;;;5004795;28;20595;-53
2023/03/26 00:09:06;;;;;;;7.00;2.63;;;;;;;;;;4998299;28;20270;-52
2023/03/26 00:11:33;;;;;;;6.90;2.00;;;;;;;;;;5004233;28;20275;-52
2023/03/26 00:13:59;;;;;;;6.50;2.67;;;;;;;;;;5001068;28;20273;-53
2023/03/26 00:16:30;;;;;;;5.50;2.63;;;;;;;;;;5004800;28;20184;-53
2023/03/26 00:18:56;;;;;;;5.53;2.53;;;;;;;;;;4995961;28;20182;-53
2023/03/26 00:21:27;;;;;;;5.97;2.93;;;;;;;;;;5003943;28;20253;-53
2023/03/26 00:23:58;;;;;;;6.87;2.60;;;;;;;;;;4999769;28;20182;-53
2023/03/26 00:26:25;;;;;;;8.47;2.93;;;;;;;;;;5004105;28;20190;-53
2023/03/26 00:28:51;;;;;;;7.53;3.33;;;;;;;;;;4998131;28;20189;-52
2023/03/26 00:31:17;;;;;;;6.03;2.67;;;;;;;;;;4998585;28;20189;-53
2023/03/26 00:33:43;;;;;;;6.70;2.80;;;;;;;;;;4991449;28;20197;-53
2023/03/26 00:36:13;;;;;;;5.33;2.33;;;;;;;;;;5003448;28;20265;-53
2023/03/26 00:38:39;;;;;;;6.90;2.83;;;;;;;;;;5002447;28;20508;-52
2023/03/26 00:41:16;;;;;;;11.13;3.87;;;;;;;;;;5005034;28;20186;-52
2023/03/26 00:43:44;;;;;;;8.93;3.13;;;;;;;;;;5000822;28;20181;-53
2023/03/26 00:46:10;;;;;;;8.20;3.00;;;;;;;;;;5002520;28;20212;-53
2023/03/26 00:48:37;;;;;;;5.87;3.00;;;;;;;;;;5004793;28;20175;-53
2023/03/26 00:51:04;;;;;;;6.70;3.33;;;;;;;;;;5005630;28;20635;-53
2023/03/26 00:53:30;;;;;;;6.13;3.07;;;;;;;;;;4999111;28;20253;-53
2023/03/26 00:55:59;;;;;;;7.90;3.53;;;;;;;;;;5004446;28;20171;-53
2023/03/26 00:58:25;;;;;;;5.97;2.67;;;;;;;;;;5008495;28;20225;-53
2023/03/26 01:00:56;;;;;;;3.43;2.33;;;;;;;;;;5003173;28;20187;-53
2023/03/26 01:03:23;;;;;;;5.77;2.70;;;;;;;;;;5002240;28;20299;-53
2023/03/26 01:05:54;;;;;;;9.00;2.63;;;;;;;;;;5003820;28;20273;-53
2023/03/26 01:08:25;;;;;;;6.87;3.47;;;;;;;;;;5001459;28;20186;-53
2023/03/26 01:11:01;;;;;;;6.30;3.13;;;;;;;;;;5000684;28;20581;-53
2023/03/26 01:13:28;;;;;;;5.23;2.83;;;;;;;;;;5007251;28;20216;-53
2023/03/26 01:15:54;;;;;;;6.17;2.90;;;;;;;;;;5002104;28;20186;-52
2023/03/26 01:18:25;;;;;;;8.70;3.07;;;;;;;;;;5011540;28;20273;-52
2023/03/26 01:20:57;;;;;;;7.77;3.23;;;;;;;;;;4997692;28;20249;-53
2023/03/26 01:23:24;;;;;;;5.13;2.37;;;;;;;;;;5003423;28;21669;-53
2023/03/26 01:25:55;;;;;;;8.57;3.40;;;;;;;;;;5004799;28;20182;-53
2023/03/26 01:28:22;;;;;;;7.63;2.77;;;;;;;;;;5005899;28;20191;-53
2023/03/26 01:30:52;;;;;;;4.70;2.60;;;;;;;;;;5009405;28;20223;-53
2023/03/26 01:33:28;;;;;;;7.83;2.67;;;;;;;;;;5005629;28;20217;-53
2023/03/26 01:35:58;;;;;;;5.17;2.47;;;;;;;;;;5006406;28;20186;-53
2023/03/26 01:38:45;;;;;;;6.60;2.33;;;;;;;;;;5005270;28;20270;-53
2023/03/26 01:41:21;;;;;;;8.93;2.63;;;;;;;;;;5005166;28;20210;-53
2023/03/26 01:44:00;;;;;;;5.77;2.90;;;;;;;;;;5002635;28;20641;-52
2023/03/26 01:46:26;;;;;;;4.17;2.83;;;;;;;;;;5002245;28;20186;-53
2023/03/26 01:48:54;;;;;;;8.33;3.33;;;;;;;;;;5000270;28;20256;-53
2023/03/26 01:51:27;;;;;;;6.23;2.47;;;;;;;;;;5006581;28;20178;-53
2023/03/26 01:53:54;;;;;;;5.17;3.03;;;;;;;;;;5004410;28;20189;-53
2023/03/26 01:56:44;;;;;;;5.63;2.40;;;;;;;;;;4998820;28;20178;-52
2023/03/26 01:59:29;;;;;;;4.10;2.23;;;;;;;;;;5002801;28;20654;-53
2023/03/26 02:02:10;;;;;;;8.37;2.70;;;;;;;;;;5002244;28;20193;-52
2023/03/26 02:04:40;;;;;;;7.33;2.80;;;;;;;;;;5000468;28;20188;-53
2023/03/26 02:07:09;;;;;;;7.87;2.70;;;;;;;;;;5001791;28;20178;-53
2023/03/26 02:09:39;;;;;;;9.30;2.97;;;;;;;;;;5003256;28;20302;-53
2023/03/26 02:12:06;;;;;;;5.00;2.37;;;;;;;;;;5002860;28;20289;-52
2023/03/26 02:14:33;;;;;;;6.27;2.50;;;;;;;;;;5008003;28;20191;-52
2023/03/26 02:16:59;;;;;;;4.80;2.63;;;;;;;;;;5003836;28;20221;-53
2023/03/26 02:19:25;;;;;;;4.33;2.40;;;;;;;;;;5000063;28;20197;-53
2023/03/26 02:21:51;;;;;;;6.80;2.63;;;;;;;;;;4998018;28;20239;-53
2023/03/26 02:24:18;;;;;;;8.30;3.27;;;;;;;;;;5003192;28;20194;-52
2023/03/26 02:26:44;;;;;;;4.90;2.50;;;;;;;;;;5008199;28;20682;-53
2023/03/26 02:29:12;;;;;;;6.73;2.97;;;;;;;;;;5000112;28;20198;-53
2023/03/26 02:31:38;;;;;;;5.63;2.77;;;;;;;;;;4996080;28;20217;-53
2023/03/26 02:34:04;;;;;;;8.13;3.00;;;;;;;;;;5006013;28;20182;-53
2023/03/26 02:36:30;;;;;;;7.23;2.63;;;;;;;;;;5006449;28;20187;-53
2023/03/26 02:38:59;;;;;;;6.60;2.63;;;;;;;;;;4998475;28;20471;-53
2023/03/26 02:41:25;;;;;;;6.23;2.93;;;;;;;;;;5007400;28;20179;-53
2023/03/26 02:43:51;;;;;;;4.07;2.40;;;;;;;;;;5003664;28;20248;-53
2023/03/26 02:46:17;;;;;;;6.40;2.87;;;;;;;;;;5001541;28;20190;-53
2023/03/26 02:48:43;;;;;;;6.17;2.90;;;;;;;;;;5000539;28;20171;-53
2023/03/26 02:51:09;;;;;;;5.33;2.10;;;;;;;;;;5004596;28;20529;-53
2023/03/26 02:53:36;;;;;;;7.90;2.33;;;;;;;;;;5001844;28;20991;-53
2023/03/26 02:56:02;;;;;;;7.40;2.73;;;;;;;;;;4994089;28;20183;-53
2023/03/26 02:58:28;;;;;;;7.63;2.60;;;;;;;;;;4999592;28;20188;-53
2023/03/26 03:00:55;;;;;;;6.90;3.30;;;;;;;;;;5001854;28;20587;-53
2023/03/26 03:03:25;;;;;;;10.90;4.97;;;;;;;;;;4999500;28;20185;-53
2023/03/26 03:05:52;;;;;;;9.03;3.33;;;;;;;;;;5003664;28;20248;-53
2023/03/26 03:08:18;;;;;;;6.33;3.10;;;;;;;;;;4997903;28;20237;-53
2023/03/26 03:10:55;;;;;;;7.53;2.77;;;;;;;;;;4999381;28;20507;-53
2023/03/26 03:13:21;;;;;;;5.97;2.87;;;;;;;;;;5000553;28;20198;-53
2023/03/26 03:15:47;;;;;;;7.43;3.10;;;;;;;;;;5003183;28;20562;-53
2023/03/26 03:18:13;;;;;;;7.17;4.87;;;;;;;;;;4998827;28;20178;-53
2023/03/26 03:20:39;;;;;;;7.10;2.50;;;;;;;;;;5002016;28;20295;-53
2023/03/26 03:23:05;;;;;;;6.83;3.00;;;;;;;;;;4997726;28;20183;-53
2023/03/26 03:25:31;;;;;;;9.40;2.70;;;;;;;;;;4997892;28;20194;-53
2023/03/26 03:27:57;;;;;;;8.20;3.07;;;;;;;;;;4997994;28;20190;-53
2023/03/26 03:30:24;;;;;;;6.17;3.40;;;;;;;;;;5003089;28;20540;-53
2023/03/26 03:32:50;;;;;;;7.83;2.83;;;;;;;;;;5001734;28;20221;-53
2023/03/26 03:35:16;;;;;;;9.00;3.10;;;;;;;;;;5002402;28;20187;-53
2023/03/26 03:37:42;;;;;;;4.97;2.63;;;;;;;;;;5002201;28;20174;-53
2023/03/26 03:40:30;;;;;;;5.00;3.53;;;;;;;;;;5002967;28;20605;-53
2023/03/26 03:49:03;;;;;;;4.73;2.77;;;;;;;;;;5002911;28;20578;-54
2023/03/26 03:51:30;;;;;;;4.63;2.70;;;;;;;;;;5008037;28;20189;-53
2023/03/26 03:53:56;;;;;;;5.80;2.60;;;;;;;;;;5002612;28;20568;-53
2023/03/26 03:56:23;;;;;;;5.67;2.60;;;;;;;;;;4998342;28;20183;-53
2023/03/26 03:58:49;;;;;;;6.43;2.90;;;;;;;;;;4998815;28;20182;-53
2023/03/26 04:01:16;;;;;;;6.47;3.97;;;;;;;;;;5002355;28;20238;-53
2023/03/26 04:03:45;;;;;;;8.27;2.90;;;;;;;;;;4997333;28;20520;-53
2023/03/26 04:06:11;;;;;;;5.53;2.67;;;;;;;;;;4999968;28;20266;-53
2023/03/26 04:08:38;;;;;;;7.20;3.00;;;;;;;;;;5001670;28;20547;-53
2023/03/26 04:11:04;;;;;;;6.00;2.93;;;;;;;;;;4996070;28;20860;-53
2023/03/26 04:13:30;;;;;;;7.53;2.40;;;;;;;;;;4996175;28;20211;-53
2023/03/26 04:15:56;;;;;;;6.90;2.90;;;;;;;;;;4999283;28;20232;-53
2023/03/26 04:18:22;;;;;;;7.60;2.90;;;;;;;;;;5000343;28;20590;-53
2023/03/26 04:20:49;;;;;;;6.97;2.97;;;;;;;;;;5002300;28;20241;-52
2023/03/26 04:23:16;;;;;;;4.20;3.80;;;;;;;;;;5002344;28;20194;-53
2023/03/26 04:25:47;;;;;;;8.03;2.60;;;;;;;;;;4993821;28;20213;-53
2023/03/26 04:28:19;;;;;;;6.00;2.83;;;;;;;;;;5000855;28;20543;-53
2023/03/26 04:30:45;;;;;;;6.60;2.90;;;;;;;;;;4994427;28;20253;-53
2023/03/26 04:33:14;;;;;;;6.80;4.00;;;;;;;;;;5003358;28;20771;-53
2023/03/26 04:35:43;;;;;;;4.13;2.50;;;;;;;;;;4996735;28;20183;-53
2023/03/26 04:38:09;;;;;;;7.00;2.97;;;;;;;;;;5000186;28;20262;-53
2023/03/26 04:40:35;;;;;;;4.73;2.30;;;;;;;;;;4998655;28;20218;-53
2023/03/26 04:43:02;;;;;;;5.07;2.77;;;;;;;;;;5005793;28;20708;-53
2023/03/26 04:45:29;;;;;;;3.13;1.97;;;;;;;;;;4998697;28;20180;-53
2023/03/26 04:47:56;;;;;;;6.83;2.80;;;;;;;;;;5011508;28;20205;-52
2023/03/26 04:50:23;;;;;;;7.67;2.90;;;;;;;;;;5001101;28;20270;-53
2023/03/26 04:52:49;;;;;;;6.30;2.60;;;;;;;;;;5000470;28;21587;-53
2023/03/26 04:55:23;;;;;;;6.87;2.50;;;;;;;;;;5000036;28;20663;-53
2023/03/26 04:57:51;;;;;;;5.20;2.50;;;;;;;;;;5004679;28;20187;-53
2023/03/26 05:00:19;;;;;;;4.33;3.03;;;;;;;;;;5000251;28;20204;-53
2023/03/26 05:02:49;;;;;;;4.47;2.53;;;;;;;;;;5001426;28;20182;-53
2023/03/26 05:05:15;;;;;;;4.60;2.10;;;;;;;;;;5003534;28;20197;-53
2023/03/26 05:07:41;;;;;;;4.00;2.40;;;;;;;;;;4999980;28;20182;-53
2023/03/26 05:10:07;;;;;;;3.97;2.13;;;;;;;;;;5002830;28;20186;-53
2023/03/26 05:12:34;;;;;;;7.37;2.30;;;;;;;;;;5002553;28;20206;-53
2023/03/26 05:15:00;;;;;;;6.00;2.37;;;;;;;;;;5002234;28;20202;-52
2023/03/26 05:17:29;;;;;;;4.27;2.43;;;;;;;;;;4998498;28;20828;-53
2023/03/26 05:19:56;;;;;;;6.00;2.90;;;;;;;;;;4992154;28;20221;-53
2023/03/26 05:22:22;;;;;;;5.33;2.83;;;;;;;;;;4998200;28;20175;-53
2023/03/26 05:24:48;;;;;;;4.30;2.40;;;;;;;;;;4995909;28;20187;-53
2023/03/26 05:27:15;;;;;;;4.17;2.37;;;;;;;;;;4995926;28;20220;-52
2023/03/26 05:29:42;;;;;;;4.43;2.30;;;;;;;;;;4997182;28;20209;-52
2023/03/26 05:32:08;;;;;;;5.30;2.47;;;;;;;;;;5004187;28;20720;-52
2023/03/26 05:34:34;;;;;;;9.10;3.00;;;;;;;;;;5000856;28;20182;-52
2023/03/26 05:37:00;;;;;;;6.43;2.47;;;;;;;;;;4992034;28;20262;-52
2023/03/26 05:39:28;;;;;;;9.67;2.83;;;;;;;;;;5004998;28;20232;-53
2023/03/26 05:41:55;;;;;;;6.67;2.40;;;;;;;;;;5001934;28;20175;-53
2023/03/26 05:44:21;;;;;;;7.87;2.90;;;;;;;;;;5000838;28;20239;-53
2023/03/26 05:46:47;;;;;;;5.60;2.70;;;;;;;;;;4996615;28;20507;-53
2023/03/26 05:49:13;;;;;;;6.33;2.73;;;;;;;;;;5005392;28;20247;-53
2023/03/26 05:51:39;;;;;;;6.73;2.07;;;;;;;;;;4996295;28;20186;-53
2023/03/26 05:54:05;;;;;;;7.37;2.90;;;;;;;;;;4998219;28;20194;-52
2023/03/26 05:56:31;;;;;;;4.90;2.10;;;;;;;;;;4997673;28;20183;-53
2023/03/26 05:58:57;;;;;;;6.13;2.33;;;;;;;;;;5000028;28;20498;-52
2023/03/26 06:01:24;;;;;;;5.60;2.60;;;;;;;;;;4999344;28;20179;-53
2023/03/26 06:03:51;;;;;;;8.37;2.70;;;;;;;;;;5003134;28;20213;-52
2023/03/26 06:06:19;;;;;;;5.03;2.50;;;;;;;;;;5013290;28;20705;-53
2023/03/26 06:08:47;;;;;;;6.87;2.53;;;;;;;;;;5004294;28;20205;-53
2023/03/26 06:11:14;;;;;;;3.93;2.43;;;;;;;;;;5007284;28;20210;-53
2023/03/26 06:13:40;;;;;;;4.50;2.23;;;;;;;;;;4993442;28;20295;-56
2023/03/26 06:16:07;;;;;;;7.70;2.27;;;;;;;;;;4999217;28;20192;-56
2023/03/26 06:18:33;;;;;;;5.37;2.83;;;;;;;;;;5001983;28;20612;-57
2023/03/26 06:20:59;;;;;;;5.97;2.73;;;;;;;;;;5001284;28;20235;-56
2023/03/26 06:23:26;;;;;;;8.53;2.73;;;;;;;;;;5005434;28;20551;-56
2023/03/26 06:25:52;;;;;;;6.03;2.83;;;;;;;;;;4997766;28;20182;-58
2023/03/26 06:28:18;;;;;;;8.03;3.20;;;;;;;;;;4998762;28;20182;-57
2023/03/26 06:30:45;;;;;;;7.93;2.70;;;;;;;;;;5001457;28;20178;-57
2023/03/26 06:33:11;;;;;;;8.50;2.67;;;;;;;;;;5003457;28;20256;-57
2023/03/26 06:35:37;;;;;;;8.77;3.07;;;;;;;;;;5007908;28;20190;-56
2023/03/26 06:38:04;;;;;;;4.77;2.60;;;;;;;;;;5001760;28;20209;-56
2023/03/26 06:40:30;;;;;;;7.70;3.03;;;;;;;;;;5013031;28;20228;-56
2023/03/26 06:42:56;;;;;;;4.83;3.07;;;;;;;;;;4998868;28;20190;-57
2023/03/26 06:45:22;;;;;;;5.73;2.37;;;;;;;;;;4997966;28;20179;-56
2023/03/26 06:47:48;;;;;;;8.23;2.27;;;;;;;;;;4996366;28;20209;-56
2023/03/26 06:50:15;;;;;;;4.40;2.63;;;;;;;;;;5015670;28;20209;-56
2023/03/26 06:52:41;;;;;;;6.53;2.93;;;;;;;;;;5004225;28;20207;-56
2023/03/26 06:55:09;;;;;;;5.70;2.90;;;;;;;;;;5001632;28;20262;-56
2023/03/26 06:57:35;;;;;;;4.97;2.20;;;;;;;;;;4999950;28;20182;-56
2023/03/26 07:00:01;;;;;;;6.23;3.00;;;;;;;;;;5003484;28;20261;-56
2023/03/26 07:02:27;;;;;;;6.90;2.67;;;;;;;;;;4999569;28;20182;-56
2023/03/26 07:04:53;;;;;;;6.23;2.43;;;;;;;;;;5010001;28;20182;-56
2023/03/26 07:07:20;;;;;;;6.27;2.10;;;;;;;;;;5001599;28;20274;-55
2023/03/26 07:09:47;;;;;;;4.57;2.93;;;;;;;;;;5001185;28;20182;-56
2023/03/26 07:12:13;;;;;;;5.33;2.13;;;;;;;;;;5001677;28;20677;-55
2023/03/26 07:14:39;;;;;;;3.40;2.37;;;;;;;;;;4999615;28;20650;-56
2023/03/26 07:17:06;;;;;;;9.33;3.60;;;;;;;;;;5000209;28;20199;-56
2023/03/26 07:19:32;;;;;;;5.00;2.60;;;;;;;;;;4994684;28;20182;-56
2023/03/26 07:21:58;;;;;;;5.17;2.50;;;;;;;;;;5007560;28;20586;-56
2023/03/26 07:24:24;;;;;;;4.33;2.27;;;;;;;;;;5005342;28;20186;-56
2023/03/26 07:26:50;;;;;;;8.40;2.97;;;;;;;;;;5006847;28;20179;-56
2023/03/26 07:29:27;;;;;;;6.00;2.17;;;;;;;;;;5006466;28;20536;-56
2023/03/26 07:32:17;;;;;;;7.07;2.80;;;;;;;;;;5004201;28;20727;-56
2023/03/26 07:35:04;;;;;;;5.03;2.50;;;;;;;;;;5006360;28;20235;-56
2023/03/26 07:37:49;;;;;;;5.20;2.40;;;;;;;;;;5007002;28;20559;-56
2023/03/26 07:40:25;;;;;;;10.50;2.90;;;;;;;;;;5000606;28;20596;-56
2023/03/26 07:42:54;;;;;;;5.13;2.63;;;;;;;;;;5001866;28;20177;-56
2023/03/26 07:45:32;;;;;;;5.03;2.53;;;;;;;;;;5000500;28;20186;-55
2023/03/26 07:47:59;;;;;;;5.00;2.53;;;;;;;;;;5008128;28;20182;-56
2023/03/26 07:50:25;;;;;;;5.83;2.93;;;;;;;;;;4998711;28;20569;-55
2023/03/26 07:52:52;;;;;;;4.70;2.77;;;;;;;;;;4998049;28;20201;-55
2023/03/26 07:55:18;;;;;;;3.97;2.80;;;;;;;;;;5008709;28;20193;-56
2023/03/26 07:57:53;;;;;;;4.17;2.50;;;;;;;;;;5008773;28;20197;-56
2023/03/26 08:00:39;;;;;;;6.10;3.10;;;;;;;;;;5008830;28;20175;-56
2023/03/26 08:03:05;;;;;;;9.20;3.03;;;;;;;;;;5000774;28;20774;-55
2023/03/26 08:05:33;;;;;;;4.80;2.70;;;;;;;;;;5000792;28;20239;-55
2023/03/26 08:08:15;;;;;;;4.20;2.60;;;;;;;;;;5005351;28;20661;-55
2023/03/26 08:11:08;;;;;;;8.27;2.90;;;;;;;;;;5003550;28;20186;-55
2023/03/26 08:13:52;;;;;;;3.70;2.70;;;;;;;;;;4997498;28;20226;-55
2023/03/26 08:16:39;;;;;;;6.53;2.63;;;;;;;;;;4992838;28;20229;-55
2023/03/26 08:19:21;;;;;;;8.37;2.67;;;;;;;;;;5005782;28;20217;-55
2023/03/26 08:21:50;;;;;;;4.90;2.90;;;;;;;;;;5000081;28;20316;-55
2023/03/26 08:24:26;;;;;;;9.00;2.97;;;;;;;;;;5005043;28;20170;-55
2023/03/26 08:26:58;;;;;;;6.23;2.80;;;;;;;;;;5003860;28;20200;-55
2023/03/26 08:29:35;;;;;;;4.43;2.70;;;;;;;;;;5012720;28;20602;-55
2023/03/26 08:32:03;;;;;;;4.73;2.40;;;;;;;;;;5014222;28;20220;-55
2023/03/26 08:34:29;;;;;;;3.30;2.83;;;;;;;;;;5006526;28;20732;-55
2023/03/26 08:36:55;;;;;;;5.00;2.67;;;;;;;;;;5004060;28;20186;-55
2023/03/26 08:39:21;;;;;;;5.57;2.77;;;;;;;;;;5007630;28;20174;-55
2023/03/26 08:42:06;;;;;;;2.70;2.30;;;;;;;;;;5002586;28;20602;-55
2023/03/26 08:45:04;;;;;;;4.57;2.53;;;;;;;;;;5007424;28;20712;-55
2023/03/26 08:47:40;;;;;;;3.57;2.23;;;;;;;;;;5001952;28;20178;-55
2023/03/26 08:50:21;;;;;;;4.63;2.47;;;;;;;;;;5017544;28;20185;-55
2023/03/26 08:52:56;;;;;;;3.33;2.30;;;;;;;;;;5012991;28;20201;-55
2023/03/26 08:55:22;;;;;;;5.13;2.67;;;;;;;;;;5008085;28;20182;-55
2023/03/26 08:57:54;;;;;;;6.53;2.40;;;;;;;;;;5006559;28;20194;-55
2023/03/26 09:00:41;;;;;;;3.83;2.50;;;;;;;;;;5017784;28;20189;-56
2023/03/26 09:03:20;;;;;;;5.30;2.67;;;;;;;;;;4997750;28;20191;-56
2023/03/26 09:05:57;;;;;;;6.43;2.63;;;;;;;;;;5009589;28;20182;-56
2023/03/26 09:08:23;;;;;;;8.37;2.63;;;;;;;;;;5008020;28;20178;-57
2023/03/26 09:11:08;;;;;;;6.60;3.10;;;;;;;;;;5009211;28;20221;-57
2023/03/26 09:13:34;;;;;;;5.93;2.80;;;;;;;;;;5015761;28;20229;-57
2023/03/26 09:16:19;;;;;;;4.77;2.30;;;;;;;;;;5017256;28;20915;-58
2023/03/26 09:18:52;;;;;;;5.70;2.20;;;;;;;;;;4999928;28;20178;-58
2023/03/26 09:21:20;;;;;;;5.17;2.43;;;;;;;;;;5011966;28;20256;-58
2023/03/26 09:23:59;;;;;;;7.90;2.57;;;;;;;;;;5011788;28;20182;-57
2023/03/26 09:26:38;;;;;;;7.10;2.47;;;;;;;;;;5012539;28;20191;-58
2023/03/26 09:29:19;;;;;;;6.50;2.90;;;;;;;;;;5009414;28;20178;-58
2023/03/26 09:32:04;;;;;;;9.37;3.37;;;;;;;;;;5005169;28;20198;-58
2023/03/26 09:34:41;;;;;;;8.83;3.17;;;;;;;;;;4996879;28;20185;-57
2023/03/26 09:37:13;;;;;;;7.33;2.30;;;;;;;;;;5003916;28;20186;-57
2023/03/26 09:39:46;;;;;;;5.50;2.40;;;;;;;;;;5005400;28;20901;-57
2023/03/26 09:42:34;;;;;;;4.67;2.23;;;;;;;;;;5007178;28;20179;-57
2023/03/26 09:45:00;;;;;;;6.47;2.90;;;;;;;;;;5006936;28;20207;-57
2023/03/26 09:47:36;;;;;;;4.83;2.60;;;;;;;;;;5003354;28;20182;-57
2023/03/26 09:50:09;;;;;;;6.97;2.47;;;;;;;;;;5005641;28;20569;-56
2023/03/26 09:52:44;;;;;;;6.13;2.60;;;;;;;;;;5017236;28;20198;-57
2023/03/26 09:55:22;;;;;;;6.03;2.57;;;;;;;;;;4999431;28;20235;-57
2023/03/26 09:57:57;;;;;;;4.73;2.67;;;;;;;;;;5002531;28;20182;-57
2023/03/26 10:00:41;;;;;;;4.20;2.03;;;;;;;;;;5002460;28;20269;-56
2023/03/26 10:03:14;;;;;;;2.67;2.03;;;;;;;;;;5003218;28;20610;-56
2023/03/26 10:05:47;;;;;;;3.70;2.50;;;;;;;;;;5017081;28;20436;-57
2023/03/26 10:08:36;;;;;;;3.73;1.80;;;;;;;;;;5007387;28;20193;-57
2023/03/26 10:11:17;;;;;;;3.70;2.27;;;;;;;;;;5012914;28;20214;-56
2023/03/26 10:13:44;;;;;;;2.27;1.80;;;;;;;;;;5007536;28;20205;-57
2023/03/26 10:16:16;;;;;;;2.33;1.70;;;;;;;;;;5005328;28;20183;-57
2023/03/26 10:19:01;;;;;;;3.00;2.23;;;;;;;;;;5005053;28;20182;-57
2023/03/26 10:21:27;;;;;;;2.23;1.60;;;;;;;;;;5006353;28;21028;-57
2023/03/26 10:23:59;;;;;;;3.23;2.00;;;;;;;;;;5002838;28;20909;-57
2023/03/26 10:26:26;;;;;;;4.57;2.07;;;;;;;;;;5008019;28;20224;-56
2023/03/26 10:29:10;;;;;;;2.73;1.80;;;;;;;;;;5007561;28;20183;-57
2023/03/26 10:31:42;;;;;;;4.47;1.87;;;;;;;;;;5006699;28;20187;-56
2023/03/26 10:34:20;;;;;;;2.10;1.60;;;;;;;;;;5003058;28;21694;-56
2023/03/26 10:36:56;;;;;;;2.70;1.80;;;;;;;;;;5001814;28;20183;-57
2023/03/26 10:39:22;;;;;;;3.00;1.90;;;;;;;;;;5002611;28;20181;-57
2023/03/26 10:42:07;;;;;;;2.77;1.57;;;;;;;;;;5013720;28;20187;-57
2023/03/26 10:44:52;;;;;;;2.57;1.70;;;;;;;;;;5010206;28;20182;-57
2023/03/26 10:47:36;;;;;;;2.10;1.53;;;;;;;;;;5007240;28;20639;-57
2023/03/26 10:50:10;;;;;;;1.80;1.40;;;;;;;;;;5014252;28;20186;-57
2023/03/26 10:52:40;;;;;;;2.27;1.43;;;;;;;;;;5009265;28;20205;-57
2023/03/26 10:55:25;;;;;;;2.60;1.40;;;;;;;;;;5006066;28;20187;-57
2023/03/26 10:58:10;;;;;;;2.97;1.40;;;;;;;;;;5005036;28;20198;-57
2023/03/26 11:00:39;;;;;;;2.73;1.60;;;;;;;;;;5004762;28;20273;-57
2023/03/26 11:03:29;;;;;;;2.60;1.43;;;;;;;;;;5005636;28;20641;-57
2023/03/26 11:05:55;;;;;;;2.03;1.40;;;;;;;;;;5005919;28;20252;-57
2023/03/26 11:08:42;;;;;;;1.87;1.30;;;;;;;;;;5009934;28;20188;-57
2023/03/26 11:11:17;;;;;;;1.40;1.17;;;;;;;;;;5002838;28;20236;-57
2023/03/26 11:14:08;;;;;;;1.67;1.57;;;;;;;;;;5008085;28;20216;-57
2023/03/26 11:16:41;;;;;;;1.03;1.03;;;;;;;;;;5003995;28;20243;-57
2023/03/26 11:19:07;;;;;;;2.70;1.40;;;;;;;;;;5006281;28;20578;-57
2023/03/26 11:21:36;;;;;;;1.20;1.07;;;;;;;;;;5013505;28;20233;-57
2023/03/26 11:24:16;;;;;;;1.30;1.20;;;;;;;;;;5002984;28;20179;-57
2023/03/26 11:26:51;;;;;;;1.90;1.33;;;;;;;;;;5007631;28;20178;-57
2023/03/26 11:29:53;;;;;;;1.53;1.30;;;;;;;;;;5016347;28;20259;-57
2023/03/26 11:32:45;;;;;;;2.17;1.20;;;;;;;;;;4982627;28;20206;-57
2023/03/26 11:35:14;;;;;;;1.60;1.50;;;;;;;;;;4998489;28;20195;-57
2023/03/26 11:37:45;;;;;;;1.67;1.50;;;;;;;;;;5011506;28;20182;-57
2023/03/26 11:40:20;;;;;;;1.10;1.10;;;;;;;;;;5015215;28;20654;-57
2023/03/26 11:42:46;;;;;;;1.80;1.10;;;;;;;;;;5004532;28;20231;-57
2023/03/26 11:45:15;;;;;;;2.00;1.30;;;;;;;;;;5003136;28;20178;-57
2023/03/26 11:47:50;;;;;;;1.20;1.00;;;;;;;;;;5011288;28;20189;-57
2023/03/26 11:50:20;;;;;;;1.70;1.30;;;;;;;;;;5003058;28;20315;-57
2023/03/26 11:52:46;;;;;;;1.80;1.43;;;;;;;;;;5003925;28;20269;-57
2023/03/26 11:55:12;;;;;;;1.53;1.30;;;;;;;;;;5007589;28;20182;-58
2023/03/26 11:57:41;;;;;;;2.03;1.93;;;;;;;;;;4998240;28;20178;-57
2023/03/26 12:00:15;;;;;;;1.37;1.20;;;;;;;;;;5009730;28;20184;-57
2023/03/26 12:02:41;;;;;;;1.50;1.40;;;;;;;;;;5008724;28;20186;-57
2023/03/26 12:05:35;;;;;;;1.50;1.40;;;;;;;;;;5009090;28;20235;-58
2023/03/26 12:08:17;;;;;;;1.57;1.40;;;;;;;;;;5009769;28;20791;-57
2023/03/26 12:10:43;;;;;;;1.73;1.33;;;;;;;;;;5003994;28;20184;-57
2023/03/26 12:13:31;;;;;;;1.27;1.17;;;;;;;;;;5011535;28;20544;-57
2023/03/26 12:15:58;;;;;;;1.33;1.23;;;;;;;;;;5003214;28;20802;-57
2023/03/26 12:18:25;;;;;;;1.63;1.30;;;;;;;;;;4990926;28;20631;-57
2023/03/26 12:21:11;;;;;;;1.50;1.40;;;;;;;;;;5000956;28;21077;-57
2023/03/26 12:23:51;;;;;;;2.53;1.30;;;;;;;;;;5002873;28;20201;-58
2023/03/26 12:26:19;;;;;;;1.43;1.30;;;;;;;;;;5003582;28;20581;-57
2023/03/26 12:28:46;;;;;;;1.40;1.30;;;;;;;;;;5006355;28;20525;-57
2023/03/26 12:31:16;;;;;;;1.20;1.20;;;;;;;;;;5002661;28;20186;-57
2023/03/26 12:33:43;;;;;;;1.50;1.40;;;;;;;;;;5005673;28;20233;-57
2023/03/26 12:36:23;;;;;;;1.07;1.07;;;;;;;;;;5003210;28;20175;-57
2023/03/26 12:38:49;;;;;;;1.53;1.20;;;;;;;;;;5001068;28;20174;-58
2023/03/26 12:41:17;;;;;;;1.23;1.17;;;;;;;;;;5003370;28;20313;-58
2023/03/26 12:43:47;;;;;;;1.57;1.47;;;;;;;;;;5015342;28;20654;-58
2023/03/26 12:46:34;;;;;;;1.23;1.17;;;;;;;;;;5007708;28;20237;-55
2023/03/26 12:49:04;;;;;;;1.40;1.20;;;;;;;;;;5012546;28;20199;-56
2023/03/26 12:51:45;;;;;;;1.23;1.23;;;;;;;;;;5002271;28;20259;-55
2023/03/26 12:54:31;;;;;;;1.50;1.40;;;;;;;;;;5010349;28;20602;-56
2023/03/26 12:57:19;;;;;;;1.20;1.17;;;;;;;;;;5011891;28;20182;-56
2023/03/26 13:00:08;;;;;;;1.40;1.30;;;;;;;;;;5008764;28;20204;-55
2023/03/26 13:02:44;;;;;;;1.40;1.30;;;;;;;;;;5008397;28;20178;-56
2023/03/26 13:05:13;;;;;;;1.40;1.30;;;;;;;;;;5008260;28;20516;-56
2023/03/26 13:07:46;;;;;;;1.20;1.10;;;;;;;;;;5009234;28;20179;-57
2023/03/26 13:10:21;;;;;;;2.07;1.23;;;;;;;;;;5009520;28;20175;-56
2023/03/26 13:13:06;;;;;;;1.43;1.33;;;;;;;;;;5007777;28;20220;-56
2023/03/26 13:15:35;;;;;;;1.43;1.33;;;;;;;;;;5011564;28;20187;-56
2023/03/26 13:18:11;;;;;;;1.20;1.10;;;;;;;;;;5008976;28;20190;-56
2023/03/26 13:20:56;;;;;;;1.60;1.47;;;;;;;;;;5010310;28;20256;-56
2023/03/26 13:23:28;;;;;;;2.33;1.50;;;;;;;;;;5004963;28;20205;-56
2023/03/26 13:26:05;;;;;;;1.87;1.60;;;;;;;;;;5007685;28;20201;-56
2023/03/26 13:28:31;;;;;;;1.30;1.20;;;;;;;;;;5007569;28;20205;-56
2023/03/26 13:31:27;;;;;;;2.13;1.27;;;;;;;;;;5009973;28;20178;-56
2023/03/26 13:33:56;;;;;;;2.10;1.20;;;;;;;;;;5000708;28;20236;-57
2023/03/26 13:36:42;;;;;;;1.40;1.30;;;;;;;;;;5009339;28;20645;-57
2023/03/26 13:39:13;;;;;;;1.80;1.30;;;;;;;;;;5009648;28;20189;-56
2023/03/26 13:41:50;;;;;;;1.60;1.50;;;;;;;;;;5006607;28;20189;-56
2023/03/26 13:44:19;;;;;;;1.10;1.10;;;;;;;;;;5011366;28;20638;-56
2023/03/26 13:46:52;;;;;;;1.10;1.10;;;;;;;;;;5011351;28;20174;-56
2023/03/26 13:49:35;;;;;;;1.80;1.30;;;;;;;;;;4993357;28;20912;-56
2023/03/26 13:52:13;;;;;;;1.67;1.57;;;;;;;;;;5010697;28;20179;-56
2023/03/26 13:54:39;;;;;;;1.60;1.30;;;;;;;;;;5004979;28;20178;-56
2023/03/26 13:57:24;;;;;;;1.67;1.57;;;;;;;;;;4997048;28;20542;-57
2023/03/26 13:59:50;;;;;;;1.93;1.83;;;;;;;;;;5009612;28;20720;-56
2023/03/26 14:02:25;;;;;;;2.17;1.83;;;;;;;;;;5009073;28;20423;-56
2023/03/26 14:04:53;;;;;;;1.23;1.17;;;;;;;;;;5003828;28;20190;-55
2023/03/26 14:07:25;;;;;;;1.30;1.20;;;;;;;;;;5005034;28;20449;-55
2023/03/26 14:09:54;;;;;;;0.93;0.93;;;;;;;;;;5007360;28;20178;-56
2023/03/26 14:12:26;;;;;;;1.40;1.30;;;;;;;;;;5007380;28;20856;-56
2023/03/26 14:15:01;;;;;;;1.17;1.17;;;;;;;;;;5009623;28;20174;-56
2023/03/26 14:17:33;;;;;;;1.37;1.27;;;;;;;;;;5008261;28;20174;-55
2023/03/26 14:20:06;;;;;;;2.23;1.40;;;;;;;;;;5007524;28;20643;-56
2023/03/26 14:22:50;;;;;;;1.97;1.30;;;;;;;;;;5008132;28;20225;-57
2023/03/26 14:25:25;;;;;;;1.60;1.43;;;;;;;;;;5008510;28;20194;-56
2023/03/26 14:27:51;;;;;;;1.43;1.30;;;;;;;;;;5007547;28;20229;-56
2023/03/26 14:30:40;;;;;;;2.20;1.97;;;;;;;;;;5008914;28;20261;-56
2023/03/26 14:33:06;;;;;;;1.27;1.20;;;;;;;;;;5006448;28;20683;-55
2023/03/26 14:35:36;;;;;;;1.67;1.57;;;;;;;;;;5013399;28;20182;-56
2023/03/26 14:38:02;;;;;;;1.70;1.40;;;;;;;;;;4999670;28;20631;-55
2023/03/26 14:40:35;;;;;;;2.27;1.37;;;;;;;;;;5009059;28;20206;-55
2023/03/26 14:43:12;;;;;;;2.00;1.83;;;;;;;;;;5006022;28;20174;-55
2023/03/26 14:45:50;;;;;;;3.57;1.77;;;;;;;;;;5007009;28;20212;-55
2023/03/26 14:48:30;;;;;;;1.50;1.40;;;;;;;;;;5014219;28;20193;-55
2023/03/26 14:50:56;;;;;;;1.70;1.60;;;;;;;;;;5014073;28;20182;-55
2023/03/26 14:53:43;;;;;;;1.70;1.40;;;;;;;;;;5007457;28;20989;-55
2023/03/26 14:56:30;;;;;;;2.37;1.50;;;;;;;;;;5006170;28;20666;-55
2023/03/26 14:59:15;;;;;;;1.97;1.53;;;;;;;;;;5014557;28;20226;-55
2023/03/26 15:01:59;;;;;;;1.70;1.60;;;;;;;;;;5010132;28;20261;-55
2023/03/26 15:04:44;;;;;;;2.00;1.77;;;;;;;;;;5015417;28;20195;-55
2023/03/26 15:07:11;;;;;;;1.60;1.50;;;;;;;;;;5025930;28;20653;-55
2023/03/26 15:09:38;;;;;;;3.33;1.97;;;;;;;;;;5015013;28;20272;-55
2023/03/26 15:12:09;;;;;;;1.70;1.60;;;;;;;;;;5012375;28;20206;-56
2023/03/26 15:14:50;;;;;;;1.70;1.60;;;;;;;;;;5006461;28;20183;-56
2023/03/26 15:17:22;;;;;;;1.73;1.60;;;;;;;;;;5001607;28;20182;-55